Time;durP1;ratioP1;P1;durP2;ratioP2;P2;SDS_P1;SDS_P2;PMS_P1;PMS_P2;Temp;Humidity;BMP_temperature;BMP_pressure;BME280_temperature;BME280_humidity;BME280_pressure;Samples;Min_cycle;Max_cycle;Signal;HPM_P1;HPM_P2
2023/08/17 00:01:29;;;;;;;11.70;7.40;;;;;;;23.38;73.07;98208.99;107374;1268;22513;-81
2023/08/17 00:03:59;;;;;;;8.40;6.50;;;;;;;23.37;73.27;98213.39;107401;1275;22708;-84
2023/08/17 00:06:27;;;;;;;11.30;7.10;;;;;;;23.34;73.48;98209.98;107393;1267;24476;-82
2023/08/17 00:08:58;;;;;;;7.90;6.80;;;;;;;23.24;73.69;98211.43;107391;1272;24184;-82
2023/08/17 00:11:26;;;;;;;8.70;7.60;;;;;;;23.11;73.98;98210.48;107275;1275;22684;-83
2023/08/17 00:13:57;;;;;;;9.60;7.20;;;;;;;22.99;74.19;98214.43;107398;1269;25403;-84
2023/08/17 00:16:28;;;;;;;7.60;6.30;;;;;;;22.89;74.25;98211.77;107163;1254;22548;-83
2023/08/17 00:18:58;;;;;;;9.20;7.20;;;;;;;22.84;74.38;98212.32;107230;1275;22524;-83
2023/08/17 00:21:26;;;;;;;11.40;7.00;;;;;;;22.83;74.25;98211.13;107301;1275;22528;-83
2023/08/17 00:23:56;;;;;;;10.20;7.30;;;;;;;22.82;74.55;98214.56;107346;1272;22742;-82
2023/08/17 00:26:25;;;;;;;8.20;7.30;;;;;;;22.81;74.50;98211.97;107362;1269;23920;-82
2023/08/17 00:28:53;;;;;;;8.70;6.40;;;;;;;22.79;74.94;98214.22;107239;1275;154895;-82
2023/08/17 00:31:21;;;;;;;9.70;7.40;;;;;;;22.73;75.25;98213.19;107434;1275;24264;-83
2023/08/17 00:33:49;;;;;;;11.50;7.40;;;;;;;22.59;75.52;98210.02;107248;1276;25490;-84
2023/08/17 00:36:17;;;;;;;9.10;7.10;;;;;;;22.47;75.70;98211.27;107292;1276;22934;-84
2023/08/17 00:38:45;;;;;;;8.50;7.20;;;;;;;22.40;75.80;98214.91;107259;1276;25415;-84
2023/08/17 00:41:13;;;;;;;9.30;7.30;;;;;;;22.37;76.19;98214.87;107294;1276;22634;-84
2023/08/17 00:43:43;;;;;;;9.90;6.60;;;;;;;22.34;76.22;98216.54;107195;1276;25333;-84
2023/08/17 00:46:12;;;;;;;7.30;6.60;;;;;;;22.32;76.60;98216.35;107237;1276;24605;-84
2023/08/17 00:48:42;;;;;;;8.90;7.10;;;;;;;22.28;77.62;98215.59;107145;1276;22536;-84
2023/08/17 00:51:10;;;;;;;8.40;6.60;;;;;;;22.20;77.78;98221.36;107212;1276;24074;-84
2023/08/17 00:53:38;;;;;;;11.30;7.20;;;;;;;22.16;77.57;98221.19;107205;1276;24292;-84
2023/08/17 00:56:08;;;;;;;10.00;7.60;;;;;;;22.14;77.66;98224.30;107219;1276;24089;-84
2023/08/17 00:58:36;;;;;;;9.80;7.40;;;;;;;22.13;77.62;98224.34;107150;1276;22526;-84
2023/08/17 01:01:09;;;;;;;7.80;6.90;;;;;;;22.09;78.11;98224.51;107261;1276;22541;-84
2023/08/17 01:03:40;;;;;;;13.90;7.50;;;;;;;22.02;78.78;98222.91;107225;1276;25268;-84
2023/08/17 01:06:09;;;;;;;11.10;6.80;;;;;;;21.95;79.00;98226.16;107328;1276;22529;-84
2023/08/17 01:08:38;;;;;;;9.50;7.00;;;;;;;21.87;79.18;98224.08;107262;1276;23150;-83
2023/08/17 01:11:25;;;;;;;9.30;7.50;;;;;;;21.80;79.26;98223.64;107206;1276;25296;-84
2023/08/17 01:14:05;;;;;;;8.70;7.80;;;;;;;21.72;80.39;98225.46;107067;1276;24350;-83
2023/08/17 01:16:43;;;;;;;9.00;7.80;;;;;;;21.64;80.55;98223.58;107172;1276;22523;-83
2023/08/17 01:19:20;;;;;;;9.10;7.30;;;;;;;21.56;80.97;98224.91;107213;1276;22811;-83
2023/08/17 01:21:50;;;;;;;9.90;7.40;;;;;;;21.54;80.90;98221.37;107206;1276;22616;-82
2023/08/17 01:24:19;;;;;;;8.50;7.60;;;;;;;21.58;80.60;98223.55;107356;1276;23933;-82
2023/08/17 01:26:47;;;;;;;9.40;7.60;;;;;;;21.54;80.37;98224.18;107306;1265;22538;-83
2023/08/17 01:29:15;;;;;;;12.40;7.50;;;;;;;21.53;80.51;98222.61;107278;1276;25434;-83
2023/08/17 01:32:09;;;;;;;12.30;7.80;;;;;;;21.51;80.37;98223.66;107356;1276;22531;-84
2023/08/17 01:34:44;;;;;;;11.30;8.10;;;;;;;21.50;81.08;98222.55;107260;1276;22674;-85
2023/08/17 01:37:18;;;;;;;11.40;8.30;;;;;;;21.46;81.45;98227.71;107095;1276;26567;-86
2023/08/17 01:39:52;;;;;;;10.00;8.00;;;;;;;21.37;82.08;98229.73;107118;1276;22665;-82
2023/08/17 01:42:23;;;;;;;14.50;7.70;;;;;;;21.31;81.75;98231.70;107256;1276;23281;-83
2023/08/17 01:44:52;;;;;;;11.00;7.60;;;;;;;21.36;81.92;98233.30;107282;1276;25312;-84
2023/08/17 01:47:22;;;;;;;11.40;7.90;;;;;;;21.42;82.16;98230.85;107073;1276;25382;-84
2023/08/17 01:49:51;;;;;;;10.50;8.20;;;;;;;21.47;82.03;98233.21;107231;1276;23294;-84
2023/08/17 01:52:19;;;;;;;11.70;7.90;;;;;;;21.47;82.23;98238.39;107241;1273;26596;-84
2023/08/17 01:54:47;;;;;;;8.60;7.50;;;;;;;21.44;82.09;98232.69;107134;1276;22730;-83
2023/08/17 01:57:14;;;;;;;10.20;7.70;;;;;;;21.42;82.12;98233.13;107310;1276;24396;-82
2023/08/17 01:59:43;;;;;;;8.70;6.90;;;;;;;21.41;82.16;98232.39;107317;1276;22532;-83
2023/08/17 02:02:14;;;;;;;10.30;7.20;;;;;;;21.42;82.44;98235.55;107272;1276;24389;-82
2023/08/17 02:04:42;;;;;;;9.00;7.40;;;;;;;21.43;82.38;98230.41;107157;1276;22629;-84
2023/08/17 02:07:10;;;;;;;8.40;7.60;;;;;;;21.37;82.58;98228.00;107146;1276;22519;-83
2023/08/17 02:09:39;;;;;;;11.10;7.40;;;;;;;21.29;82.68;98228.86;107220;1276;22608;-84
2023/08/17 02:12:08;;;;;;;9.00;7.60;;;;;;;21.26;82.82;98229.25;107159;1276;22536;-82
2023/08/17 02:14:36;;;;;;;8.70;7.50;;;;;;;21.25;83.34;98235.80;107362;1276;22634;-83
2023/08/17 02:17:05;;;;;;;10.60;7.80;;;;;;;21.25;83.42;98237.23;107239;1276;24380;-84
2023/08/17 02:19:33;;;;;;;8.20;7.40;;;;;;;21.26;83.49;98234.81;107214;1276;22664;-83
2023/08/17 02:22:01;;;;;;;9.80;8.70;;;;;;;21.23;83.41;98235.07;107298;1276;25477;-83
2023/08/17 02:24:29;;;;;;;11.40;8.30;;;;;;;21.21;83.58;98233.55;107273;1276;24187;-84
2023/08/17 02:26:57;;;;;;;8.40;7.50;;;;;;;21.21;83.53;98237.83;107290;1276;22547;-83
2023/08/17 02:29:25;;;;;;;11.70;8.20;;;;;;;21.18;83.65;98232.23;107251;1276;22959;-83
2023/08/17 02:31:53;;;;;;;10.60;9.10;;;;;;;21.18;83.67;98231.67;107219;1265;24530;-83
2023/08/17 02:34:21;;;;;;;12.00;8.90;;;;;;;21.16;83.96;98229.97;107058;1276;22599;-82
2023/08/17 02:36:49;;;;;;;11.00;9.00;;;;;;;21.17;84.05;98231.58;107255;1276;25382;-82
2023/08/17 02:39:17;;;;;;;10.70;9.60;;;;;;;21.18;84.41;98228.39;107182;1276;22520;-82
2023/08/17 02:41:48;;;;;;;13.10;9.60;;;;;;;21.18;84.29;98230.66;107256;1276;25252;-82
2023/08/17 02:44:16;;;;;;;11.80;9.30;;;;;;;21.18;84.37;98230.73;107230;1276;22527;-82
2023/08/17 02:46:44;;;;;;;12.00;9.60;;;;;;;21.20;84.35;98229.54;107157;1276;22606;-82
2023/08/17 02:49:12;;;;;;;10.70;9.40;;;;;;;21.24;84.24;98229.14;107142;1276;23183;-83
2023/08/17 02:51:40;;;;;;;10.10;8.60;;;;;;;21.28;84.42;98231.02;107160;1276;22534;-82
2023/08/17 02:54:08;;;;;;;10.90;9.20;;;;;;;21.31;84.35;98226.84;107188;1276;25342;-82
2023/08/17 02:56:36;;;;;;;11.40;8.80;;;;;;;21.27;84.21;98231.93;107121;1276;24277;-82
2023/08/17 02:59:04;;;;;;;10.60;9.50;;;;;;;21.28;84.47;98230.30;107254;1276;22586;-82
2023/08/17 03:01:32;;;;;;;11.10;9.00;;;;;;;21.28;84.40;98226.48;107192;1276;24302;-82
2023/08/17 03:04:00;;;;;;;10.10;7.50;;;;;;;21.29;84.37;98230.02;107160;1276;22780;-82
2023/08/17 03:06:29;;;;;;;10.50;8.00;;;;;;;21.27;84.33;98229.42;107231;1276;22567;-82
2023/08/17 03:08:57;;;;;;;9.40;8.40;;;;;;;21.26;84.64;98229.19;107225;1276;24223;-83
2023/08/17 03:11:25;;;;;;;9.60;8.60;;;;;;;21.20;84.70;98230.23;107241;1276;25334;-83
2023/08/17 03:13:59;;;;;;;11.60;9.00;;;;;;;21.14;84.90;98234.97;107176;1276;22575;-83
2023/08/17 03:16:29;;;;;;;13.60;10.50;;;;;;;21.11;84.67;98234.43;107128;1276;23118;-83
2023/08/17 03:19:00;;;;;;;15.10;9.70;;;;;;;21.13;85.02;98233.30;107110;1276;22543;-82
2023/08/17 03:21:28;;;;;;;12.60;8.70;;;;;;;21.16;85.26;98233.59;107007;1276;22572;-83
2023/08/17 03:23:56;;;;;;;9.20;8.30;;;;;;;21.19;85.85;98233.18;107133;1276;22632;-83
2023/08/17 03:26:24;;;;;;;11.80;8.50;;;;;;;21.14;86.04;98227.45;107133;1276;24439;-82
2023/08/17 03:28:52;;;;;;;10.10;9.10;;;;;;;21.03;85.81;98225.04;107187;1276;22531;-82
2023/08/17 03:31:21;;;;;;;10.20;8.10;;;;;;;20.96;86.01;98218.01;107210;1276;22524;-82
2023/08/17 03:33:49;;;;;;;11.40;8.90;;;;;;;20.92;86.11;98211.65;107243;1276;22606;-82
2023/08/17 03:36:18;;;;;;;12.00;9.10;;;;;;;20.87;87.04;98207.56;107232;1276;22507;-82
2023/08/17 03:38:46;;;;;;;15.00;9.20;;;;;;;20.81;88.03;98208.67;107202;1276;24244;-82
2023/08/17 03:41:14;;;;;;;13.40;8.20;;;;;;;20.69;89.01;98202.64;107161;1276;22651;-82
2023/08/17 03:43:43;;;;;;;12.30;8.60;;;;;;;20.69;88.55;98206.01;107235;1276;22536;-81
2023/08/17 03:46:11;;;;;;;13.40;10.20;;;;;;;20.72;87.83;98216.08;107250;1276;22631;-81
2023/08/17 03:48:39;;;;;;;13.30;9.30;;;;;;;20.69;87.64;98226.19;107199;1276;22716;-81
2023/08/17 03:51:07;;;;;;;11.50;9.10;;;;;;;20.67;87.67;98237.33;107159;1276;22567;-81
2023/08/17 03:53:35;;;;;;;10.60;9.00;;;;;;;20.71;88.18;98245.09;107233;1276;22546;-81
2023/08/17 03:56:03;;;;;;;14.70;9.70;;;;;;;20.74;87.79;98250.70;107293;1276;23020;-82
2023/08/17 03:58:34;;;;;;;13.20;9.10;;;;;;;20.76;87.83;98253.41;107260;1276;25473;-82
2023/08/17 04:01:05;;;;;;;11.60;9.40;;;;;;;20.79;87.87;98246.27;107292;1276;23946;-82
2023/08/17 04:03:33;;;;;;;10.60;7.50;;;;;;;20.83;88.04;98242.77;107062;1276;22560;-82
2023/08/17 04:06:10;;;;;;;8.90;7.80;;;;;;;20.89;88.46;98247.83;107073;1276;25282;-82
2023/08/17 04:08:38;;;;;;;10.50;8.70;;;;;;;20.95;88.41;98255.69;107185;1276;25873;-82
2023/08/17 04:11:07;;;;;;;10.40;8.60;;;;;;;20.97;88.59;98260.53;107275;1276;25336;-82
2023/08/17 04:13:35;;;;;;;10.80;9.70;;;;;;;20.98;88.36;98259.75;107166;1276;22760;-85
2023/08/17 04:16:03;;;;;;;12.50;8.70;;;;;;;20.95;88.20;98262.83;107098;1276;24278;-86
2023/08/17 04:18:31;;;;;;;10.80;8.20;;;;;;;20.93;88.16;98266.92;107243;1276;24249;-86
2023/08/17 04:20:59;;;;;;;15.90;14.30;;;;;;;20.95;88.54;98269.17;107195;1276;22535;-86
2023/08/17 04:23:27;;;;;;;16.70;12.30;;;;;;;21.01;88.52;98273.36;107113;1276;22718;-84
2023/08/17 04:25:55;;;;;;;11.40;10.20;;;;;;;21.06;88.69;98278.72;107223;1267;24076;-84
2023/08/17 04:28:23;;;;;;;11.90;9.30;;;;;;;21.07;88.47;98278.90;107149;1276;22536;-83
2023/08/17 04:30:52;;;;;;;11.30;9.30;;;;;;;21.08;88.60;98279.63;107115;1276;24079;-84
2023/08/17 04:33:20;;;;;;;10.20;9.00;;;;;;;21.10;88.87;98284.76;107077;1276;24221;-84
2023/08/17 04:35:48;;;;;;;11.30;8.90;;;;;;;21.14;88.74;98288.83;107085;1276;23268;-84
2023/08/17 04:38:17;;;;;;;11.40;9.60;;;;;;;21.16;88.70;98289.51;107063;1276;22539;-84
2023/08/17 04:40:45;;;;;;;10.90;8.70;;;;;;;21.20;88.87;98293.66;107043;1276;22535;-84
2023/08/17 04:43:13;;;;;;;14.40;9.60;;;;;;;21.22;88.71;98296.29;107043;1276;22535;-84
2023/08/17 04:45:42;;;;;;;15.70;11.60;;;;;;;21.23;88.84;98296.08;107299;1276;22534;-83
2023/08/17 04:48:10;;;;;;;11.20;10.10;;;;;;;21.20;89.05;98299.14;107437;1276;22547;-84
2023/08/17 04:50:39;;;;;;;13.90;10.60;;;;;;;21.19;89.34;98299.20;107385;1276;23013;-87
2023/08/17 04:53:07;;;;;;;13.50;10.00;;;;;;;21.21;89.05;98297.83;107323;1276;22693;-82
2023/08/17 04:55:35;;;;;;;12.40;10.00;;;;;;;21.17;89.05;98294.70;107196;1276;22535;-84
2023/08/17 04:58:03;;;;;;;12.50;10.90;;;;;;;21.20;89.18;98296.70;107220;1276;22533;-88
2023/08/17 05:00:33;;;;;;;12.30;10.40;;;;;;;21.19;89.39;98295.81;107322;1276;24770;-89
2023/08/17 05:03:01;;;;;;;16.00;11.00;;;;;;;21.16;89.52;98296.84;107366;1276;25357;-85
2023/08/17 05:05:35;;;;;;;15.10;10.80;;;;;;;21.13;89.87;98296.57;107336;1275;22521;-81
2023/08/17 05:08:05;;;;;;;14.30;10.60;;;;;;;21.21;90.27;98300.09;107225;1275;22513;-78
2023/08/17 05:10:33;;;;;;;15.10;10.70;;;;;;;21.33;90.15;98296.29;107273;1275;24191;-84
2023/08/17 05:13:01;;;;;;;21.30;11.10;;;;;;;21.40;89.90;98296.83;107057;1275;24361;-87
2023/08/17 05:15:30;;;;;;;14.80;10.20;;;;;;;21.45;90.28;98297.25;107363;1275;22612;-85
2023/08/17 05:17:59;;;;;;;17.10;12.70;;;;;;;21.59;90.67;98299.17;107263;1275;22538;-84
2023/08/17 05:20:28;;;;;;;16.10;12.40;;;;;;;21.66;90.47;98295.46;107158;1275;22634;-82
2023/08/17 05:22:56;;;;;;;21.40;13.30;;;;;;;21.68;90.21;98293.86;107072;1275;25328;-81
2023/08/17 05:25:26;;;;;;;15.60;12.40;;;;;;;21.75;90.20;98300.02;107377;1275;22532;-82
2023/08/17 05:27:54;;;;;;;18.10;13.50;;;;;;;21.82;90.06;98304.64;107383;1275;24404;-82
2023/08/17 05:30:22;;;;;;;16.40;14.90;;;;;;;21.86;90.22;98306.80;107320;1275;24065;-82
2023/08/17 05:32:50;;;;;;;16.50;14.70;;;;;;;21.90;90.13;98304.54;107284;1275;22529;-82
2023/08/17 05:35:18;;;;;;;14.00;12.30;;;;;;;21.90;89.94;98302.59;107370;1275;22582;-82
2023/08/17 05:37:46;;;;;;;13.20;11.60;;;;;;;21.93;89.96;98301.52;107387;1275;24193;-81
2023/08/17 05:40:15;;;;;;;10.80;9.20;;;;;;;21.98;90.05;98305.87;107285;1272;22525;-83
2023/08/17 05:42:43;;;;;;;14.80;10.80;;;;;;;22.13;90.43;98300.41;107281;1275;23335;-81
2023/08/17 05:45:12;;;;;;;15.10;10.20;;;;;;;22.28;90.19;98303.67;107292;1269;22700;-82
2023/08/17 05:47:39;;;;;;;11.40;10.10;;;;;;;22.38;89.99;98295.61;107142;1276;22522;-80
2023/08/17 05:50:08;;;;;;;17.50;9.70;;;;;;;22.45;89.62;98299.09;107227;1276;22532;-80
2023/08/17 05:52:36;;;;;;;12.30;9.30;;;;;;;22.56;90.00;98303.36;107181;1276;22514;-79
2023/08/17 05:55:04;;;;;;;15.20;10.70;;;;;;;22.74;90.04;98305.52;107156;1276;22541;-79
2023/08/17 05:57:33;;;;;;;13.30;10.40;;;;;;;22.87;89.33;98308.85;107138;1276;22891;-79
2023/08/17 06:00:01;;;;;;;14.00;10.10;;;;;;;22.94;88.74;98311.88;107186;1276;24369;-81
2023/08/17 06:02:39;;;;;;;18.40;11.50;;;;;;;22.95;88.59;98314.33;107308;1276;22557;-80
2023/08/17 06:05:08;;;;;;;13.50;11.20;;;;;;;22.94;88.60;98315.86;107194;1276;22740;-79
2023/08/17 06:07:37;;;;;;;11.70;10.20;;;;;;;22.96;88.38;98311.91;107501;1276;25304;-80
2023/08/17 06:10:06;;;;;;;14.40;11.40;;;;;;;22.96;88.11;98307.66;107410;1275;24277;-79
2023/08/17 06:12:34;;;;;;;15.30;10.60;;;;;;;22.94;87.79;98304.48;107339;1275;22637;-80
2023/08/17 06:15:03;;;;;;;14.90;11.20;;;;;;;22.92;87.40;98303.42;107340;1275;22634;-80
2023/08/17 06:17:31;;;;;;;13.30;9.80;;;;;;;22.91;87.37;98301.98;107182;1275;24389;-79
2023/08/17 06:19:59;;;;;;;13.00;9.90;;;;;;;22.90;86.70;98303.24;107278;1275;22719;-80
2023/08/17 06:22:27;;;;;;;13.60;10.40;;;;;;;22.91;86.76;98310.15;107366;1275;22644;-79
2023/08/17 06:24:55;;;;;;;16.40;10.70;;;;;;;22.91;86.46;98314.46;107187;1275;24544;-79
2023/08/17 06:27:23;;;;;;;13.50;10.60;;;;;;;22.94;86.49;98314.54;107280;1273;25310;-80
2023/08/17 06:29:52;;;;;;;16.70;11.40;;;;;;;23.00;86.49;98312.60;107259;1263;24377;-79
2023/08/17 06:32:20;;;;;;;14.50;10.80;;;;;;;23.03;86.24;98310.66;107308;1275;22583;-79
2023/08/17 06:34:48;;;;;;;17.00;10.90;;;;;;;23.09;86.02;98309.98;107304;1275;22529;-79
2023/08/17 06:37:16;;;;;;;15.80;10.90;;;;;;;23.16;86.13;98304.02;107353;1275;22611;-80
2023/08/17 06:39:45;;;;;;;15.30;10.30;;;;;;;23.24;85.95;98301.85;107390;1275;22578;-80
2023/08/17 06:42:13;;;;;;;15.10;10.20;;;;;;;23.25;85.51;98305.71;107329;1261;25523;-80
2023/08/17 06:44:41;;;;;;;13.00;10.50;;;;;;;23.23;85.41;98304.50;107302;1275;22655;-80
2023/08/17 06:47:09;;;;;;;14.40;11.00;;;;;;;23.23;85.41;98304.17;107282;1275;22521;-80
2023/08/17 06:49:37;;;;;;;15.10;9.90;;;;;;;23.25;85.23;98303.42;107299;1275;22696;-80
2023/08/17 06:52:05;;;;;;;12.40;9.70;;;;;;;23.24;84.95;98302.55;107327;1275;22631;-79
2023/08/17 06:54:37;;;;;;;13.70;10.00;;;;;;;23.21;84.84;98303.08;107200;1275;23944;-80
2023/08/17 06:57:05;;;;;;;13.80;9.90;;;;;;;23.19;84.80;98299.73;107381;1260;22642;-82
2023/08/17 06:59:33;;;;;;;15.20;10.00;;;;;;;23.19;84.69;98297.05;107347;1275;22589;-83
2023/08/17 07:02:02;;;;;;;13.80;9.60;;;;;;;23.17;84.63;98295.62;107320;1275;24222;-79
2023/08/17 07:04:30;;;;;;;17.30;10.50;;;;;;;23.15;84.55;98295.61;107265;1275;23017;-80
2023/08/17 07:06:59;;;;;;;11.10;9.80;;;;;;;23.17;84.33;98295.70;107319;1275;24086;-80
2023/08/17 07:09:28;;;;;;;10.60;9.20;;;;;;;23.20;84.36;98297.23;107355;1275;22533;-80
2023/08/17 07:11:56;;;;;;;14.70;9.20;;;;;;;23.28;84.60;98291.05;106934;1275;23910;-80
2023/08/17 07:14:24;;;;;;;15.50;10.00;;;;;;;23.42;84.59;98290.20;106935;1275;24192;-81
2023/08/17 07:16:52;;;;;;;15.90;11.50;;;;;;;23.59;84.77;98288.98;107338;1275;23346;-83
2023/08/17 07:19:22;;;;;;;13.40;11.00;;;;;;;23.81;84.55;98287.38;107424;1275;22549;-79
2023/08/17 07:22:10;;;;;;;15.50;11.20;;;;;;;23.99;84.17;98292.60;107369;1275;23902;-79
2023/08/17 07:24:38;;;;;;;15.40;10.80;;;;;;;24.13;83.69;98289.26;107338;1275;22531;-79
2023/08/17 07:27:06;;;;;;;17.20;11.70;;;;;;;24.31;83.87;98290.13;107294;1275;22736;-79
2023/08/17 07:29:34;;;;;;;12.50;9.80;;;;;;;24.51;83.63;98291.67;107157;1258;24340;-81
2023/08/17 07:32:02;;;;;;;13.70;10.40;;;;;;;24.64;83.07;98293.10;107335;1275;25280;-80
2023/08/17 07:34:31;;;;;;;15.50;11.10;;;;;;;24.69;82.64;98296.29;107342;1275;23095;-80
2023/08/17 07:36:59;;;;;;;19.00;10.70;;;;;;;24.73;82.52;98293.95;107374;1275;23285;-81
2023/08/17 07:39:27;;;;;;;18.20;10.80;;;;;;;24.77;82.24;98294.45;107351;1275;25378;-79
2023/08/17 07:41:55;;;;;;;20.50;10.60;;;;;;;24.77;81.81;98295.01;108000;1275;22532;-78
2023/08/17 07:44:23;;;;;;;17.80;10.50;;;;;;;24.76;81.56;98298.94;107487;1275;22650;-81
2023/08/17 07:46:51;;;;;;;14.20;9.40;;;;;;;24.77;81.86;98301.62;107642;1275;22632;-81
2023/08/17 07:49:20;;;;;;;14.50;9.90;;;;;;;24.83;81.79;98302.20;107892;1275;25522;-82
2023/08/17 07:51:59;;;;;;;18.70;10.50;;;;;;;24.99;81.83;98296.78;107768;1275;22665;-83
2023/08/17 07:54:27;;;;;;;15.40;9.60;;;;;;;25.15;81.12;98292.57;107878;1263;22731;-80
2023/08/17 07:56:56;;;;;;;11.80;9.50;;;;;;;25.32;81.11;98292.27;107749;1275;25884;-81
2023/08/17 07:59:25;;;;;;;19.60;10.30;;;;;;;25.52;80.89;98292.11;107447;1275;22588;-81
2023/08/17 08:01:53;;;;;;;11.30;8.90;;;;;;;25.67;80.20;98293.27;107936;1275;22580;-81
2023/08/17 08:04:22;;;;;;;12.20;9.60;;;;;;;25.77;79.19;98287.21;107822;1275;22646;-83
2023/08/17 08:06:50;;;;;;;14.50;9.80;;;;;;;25.78;78.34;98283.27;107777;1253;24229;-81
2023/08/17 08:09:18;;;;;;;12.80;9.50;;;;;;;25.72;76.93;98289.26;108057;1275;24209;-81
2023/08/17 08:11:46;;;;;;;12.10;9.30;;;;;;;25.63;76.08;98290.96;107629;1275;25335;-80
2023/08/17 08:14:14;;;;;;;14.50;9.30;;;;;;;25.57;76.41;98292.67;107486;1275;22553;-82
2023/08/17 08:16:42;;;;;;;13.90;9.80;;;;;;;25.64;76.52;98288.98;107427;1275;22820;-83
2023/08/17 08:19:10;;;;;;;11.20;9.30;;;;;;;25.75;76.54;98286.51;107472;1275;22738;-82
2023/08/17 08:21:39;;;;;;;11.20;8.80;;;;;;;25.88;76.46;98286.41;107582;1275;22943;-84
2023/08/17 08:24:07;;;;;;;12.50;8.90;;;;;;;26.03;76.63;98283.20;107486;1275;24217;-84
2023/08/17 08:26:45;;;;;;;13.80;9.40;;;;;;;26.22;75.47;98284.72;107427;1275;23490;-84
2023/08/17 08:29:13;;;;;;;13.50;9.00;;;;;;;26.32;75.32;98281.48;107478;1275;22524;-84
2023/08/17 08:31:41;;;;;;;10.00;8.60;;;;;;;26.46;75.21;98284.41;107335;1275;22639;-84
2023/08/17 08:34:09;;;;;;;11.50;8.80;;;;;;;26.53;72.22;98282.45;107312;1275;22670;-84
2023/08/17 08:36:37;;;;;;;10.60;8.70;;;;;;;26.50;72.08;98281.58;107352;1275;22599;-84
2023/08/17 08:39:05;;;;;;;10.80;8.60;;;;;;;26.47;71.72;98283.70;107446;1262;24328;-84
2023/08/17 08:41:34;;;;;;;13.90;9.80;;;;;;;26.51;71.26;98280.88;107475;1275;24076;-84
2023/08/17 08:44:03;;;;;;;19.70;9.70;;;;;;;26.55;71.16;98279.06;107514;1275;24030;-84
2023/08/17 08:46:33;;;;;;;13.00;9.20;;;;;;;26.61;71.50;98282.84;107441;1275;22616;-86
2023/08/17 08:49:04;;;;;;;12.10;8.90;;;;;;;26.67;70.82;98283.48;107407;1263;22650;-85
2023/08/17 08:51:37;;;;;;;11.90;8.60;;;;;;;26.74;71.42;98281.88;107442;1258;22604;-85
2023/08/17 08:54:10;;;;;;;11.70;8.80;;;;;;;26.84;71.22;98278.70;107495;1275;25554;-85
2023/08/17 08:56:42;;;;;;;13.70;9.20;;;;;;;26.97;71.84;98270.23;107479;1275;22587;-85
2023/08/17 08:59:16;;;;;;;12.40;9.10;;;;;;;27.07;72.00;98263.17;107385;1275;25694;-84
2023/08/17 09:01:44;;;;;;;11.50;8.60;;;;;;;27.26;71.60;98263.67;107479;1275;23262;-84
2023/08/17 09:04:13;;;;;;;14.00;9.50;;;;;;;27.23;69.66;98252.77;107445;1275;23265;-84
2023/08/17 09:06:43;;;;;;;11.60;8.90;;;;;;;27.40;68.88;98264.58;107405;1275;24416;-84
2023/08/17 09:09:16;;;;;;;14.30;8.60;;;;;;;27.48;68.51;98257.42;107196;1275;22531;-84
2023/08/17 09:11:45;;;;;;;14.20;9.60;;;;;;;27.58;68.91;98256.65;107429;1275;22642;-84
2023/08/17 09:14:13;;;;;;;13.00;9.20;;;;;;;27.79;68.77;98257.66;107407;1275;23896;-84
2023/08/17 09:16:41;;;;;;;14.00;9.50;;;;;;;27.95;68.18;98251.64;107640;1275;25391;-84
2023/08/17 09:19:10;;;;;;;13.10;9.30;;;;;;;28.07;67.69;98250.21;107566;1267;25400;-87
2023/08/17 09:21:38;;;;;;;11.00;8.70;;;;;;;28.24;67.75;98249.52;107571;1275;25383;-87
2023/08/17 09:24:07;;;;;;;16.70;8.50;;;;;;;28.45;67.24;98245.95;107489;1275;25718;-87
2023/08/17 09:26:36;;;;;;;12.10;8.10;;;;;;;28.57;65.45;98244.50;107568;1275;24199;-86
2023/08/17 09:29:21;;;;;;;14.10;8.50;;;;;;;28.49;63.88;98241.72;107570;1275;25271;-88
2023/08/17 09:32:16;;;;;;;9.80;7.90;;;;;;;28.32;63.82;98242.18;107552;1271;22554;-83
2023/08/17 09:34:44;;;;;;;13.00;8.80;;;;;;;28.31;65.07;98236.96;107518;1275;22734;-85
2023/08/17 09:37:16;;;;;;;10.70;7.90;;;;;;;28.42;64.91;98234.02;107482;1275;23024;-85
2023/08/17 09:39:44;;;;;;;9.50;7.80;;;;;;;28.49;63.28;98232.55;107522;1275;24208;-85
2023/08/17 09:42:12;;;;;;;13.30;7.60;;;;;;;28.55;63.01;98224.64;107529;1275;24383;-86
2023/08/17 09:44:40;;;;;;;12.80;8.00;;;;;;;28.71;63.94;98224.41;107402;1275;22756;-86
2023/08/17 09:47:10;;;;;;;9.40;7.30;;;;;;;28.92;63.87;98225.84;107554;1275;22678;-86
2023/08/17 09:49:39;;;;;;;8.30;6.10;;;;;;;29.07;60.71;98225.46;107401;1275;25285;-86
2023/08/17 09:52:08;;;;;;;7.90;5.30;;;;;;;29.04;58.90;98226.44;107412;1275;22694;-84
2023/08/17 09:54:36;;;;;;;8.10;5.80;;;;;;;29.09;60.23;98228.84;107372;1275;25084;-84
2023/08/17 09:57:05;;;;;;;9.00;6.00;;;;;;;29.29;60.83;98231.92;107192;1274;22536;-84
2023/08/17 09:59:33;;;;;;;8.60;5.80;;;;;;;29.40;61.16;98236.15;107292;1268;22658;-84
2023/08/17 10:02:22;;;;;;;9.90;6.40;;;;;;;29.40;60.13;98239.00;107258;1276;22531;-84
2023/08/17 10:04:52;;;;;;;7.50;5.60;;;;;;;29.51;60.75;98236.09;107152;1276;22631;-83
2023/08/17 10:07:24;;;;;;;8.10;5.90;;;;;;;29.69;58.67;98235.70;107275;1276;22634;-84
2023/08/17 10:10:02;;;;;;;12.00;5.50;;;;;;;29.84;59.27;98233.51;107219;1276;22634;-83
2023/08/17 10:12:36;;;;;;;9.60;5.60;;;;;;;30.03;59.25;98232.25;107298;1276;22653;-84
2023/08/17 10:15:08;;;;;;;10.00;6.40;;;;;;;30.24;59.69;98228.05;107239;1276;22538;-84
2023/08/17 10:18:09;;;;;;;8.50;5.00;;;;;;;30.50;57.88;98219.65;107346;1276;22606;-84
2023/08/17 10:20:49;;;;;;;7.90;4.50;;;;;;;30.60;55.96;98216.95;107161;1276;24951;-85
2023/08/17 10:23:19;;;;;;;8.90;4.60;;;;;;;30.70;56.14;98214.14;107083;1276;25399;-85
2023/08/17 10:25:48;;;;;;;7.40;5.00;;;;;;;30.75;54.18;98215.64;107368;1276;22638;-83
2023/08/17 10:28:18;;;;;;;7.40;5.00;;;;;;;30.71;55.56;98215.31;107369;1276;22633;-84
2023/08/17 10:30:48;;;;;;;7.60;4.70;;;;;;;30.86;55.83;98228.42;107396;1276;22640;-84
2023/08/17 10:33:17;;;;;;;8.30;4.40;;;;;;;30.94;55.28;98229.85;107335;1276;22626;-84
2023/08/17 10:35:46;;;;;;;7.90;4.40;;;;;;;30.91;53.75;98232.77;107401;1276;24245;-84
2023/08/17 10:38:15;;;;;;;8.70;4.50;;;;;;;30.74;53.14;98232.04;107462;1265;22528;-84
2023/08/17 10:40:43;;;;;;;7.50;4.70;;;;;;;30.49;54.11;98235.42;107784;1273;25466;-84
2023/08/17 10:43:12;;;;;;;9.60;4.80;;;;;;;30.32;53.88;98237.45;107655;1275;22598;-84
2023/08/17 10:45:43;;;;;;;10.20;5.20;;;;;;;30.12;53.95;98237.19;107466;1275;24206;-84
2023/08/17 10:48:26;;;;;;;8.00;4.70;;;;;;;29.90;54.11;98240.23;107463;1275;22615;-85
2023/08/17 10:51:02;;;;;;;8.70;4.70;;;;;;;29.72;54.60;98247.24;107491;1275;23964;-84
2023/08/17 10:53:35;;;;;;;12.40;5.50;;;;;;;29.55;54.05;98255.07;107510;1275;22523;-83
2023/08/17 10:56:06;;;;;;;10.40;5.40;;;;;;;29.29;54.05;98260.79;107503;1275;22504;-84
2023/08/17 10:58:34;;;;;;;11.00;5.20;;;;;;;29.05;54.26;98260.97;107239;1275;23223;-84
2023/08/17 11:01:03;;;;;;;10.90;5.00;;;;;;;28.85;54.36;98256.90;107456;1275;24183;-85
2023/08/17 11:03:33;;;;;;;8.00;4.70;;;;;;;28.67;54.20;98255.34;107901;1275;22503;-84
2023/08/17 11:06:15;;;;;;;9.30;4.90;;;;;;;28.53;53.97;98260.63;108067;1252;24203;-85
2023/08/17 11:08:55;;;;;;;11.50;6.60;;;;;;;28.39;53.95;98270.46;107457;1275;25950;-84
2023/08/17 11:11:24;;;;;;;12.60;5.00;;;;;;;28.25;54.08;98271.91;107294;1275;22517;-85
2023/08/17 11:13:53;;;;;;;8.50;5.10;;;;;;;28.11;54.00;98275.98;107278;1275;22773;-85
2023/08/17 11:16:25;;;;;;;13.60;5.40;;;;;;;27.89;54.23;98290.27;107371;1275;22578;-84
2023/08/17 11:18:55;;;;;;;13.70;5.10;;;;;;;27.57;54.55;98293.04;107497;1275;22520;-84
2023/08/17 11:21:23;;;;;;;11.50;4.30;;;;;;;27.23;54.71;98293.32;107493;1275;25330;-84
2023/08/17 11:23:55;;;;;;;11.10;4.90;;;;;;;26.97;54.76;98296.46;107483;1275;22644;-84
2023/08/17 11:26:24;;;;;;;8.30;5.00;;;;;;;26.74;54.96;98295.80;107501;1275;23117;-85
2023/08/17 11:28:53;;;;;;;12.20;4.80;;;;;;;26.56;55.20;98294.05;107458;1275;24189;-85